Pagina principale
METAR-TAF:

METAR-TAF

Aeroporti :

Aeroporto Internazionale di Tashkent

Taškent, Uzbekistan

latitudine: 41-16N, longitudine: 069-16E, altezza: 489 m

Osservazione

Il bollettino è stato emesso 29 minuti fa, alle 08:30 UTC
Vento 6 kt da nord-ovest, variando fra ovest e nord
Temperature 40°C
Umidità 15%
Pressione 1000 hPa
Visibilità 10 km o più
nessuna nube inferiore a 1500 m e nessun cumulonembo

METAR: UTTT 220830Z 31006KT 280V360 CAVOK 40/08 Q1000 R08L/CLRD70 NOSIG

Ora: 13:59 (08:59 UTC)

Previsione

Il bollettino è stato emesso 3 ore e 59 minuti fa, alle 05:00 UTC
Previsione valida dal 22 alle 06 UTC al 23 alle 06 UTC
Vento 10 kt da nord
Visibilità 10 km o più
nessuna nube inferiore a 1500 m e nessun cumulonembo

TAF: UTTT 220500Z 2206/2306 35010KT CAVOK TX42/2210Z

Osservazioni e previsioni meteorologiche di più di 4000 aeroporti (messaggi METAR e TAF).

Le stazioni disponibili sono rappresentate dai dischi gialli e rossi sulla carta.

Puntare il mouse per vedere il nome della stazione.

Clicca sopra per visualizzare le osservazioni e previsioni meteorologiche.

Per cambiare la mappa : fare clic sui pulsanti verdi con una croce nera per ingrandire, il pulsante verde con un trattino per diminuire, o sulla freccia verde per le mappe adiacenti.


METAR-TAF: